createdAt,value
2018-02-24T00:00:35.309Z,15.81
2018-02-24T00:01:35.322Z,15.81
2018-02-24T00:02:35.314Z,15.82
2018-02-24T00:03:35.309Z,15.8
2018-02-24T00:04:35.299Z,15.79
2018-02-24T00:05:35.298Z,15.77
2018-02-24T00:06:35.306Z,15.77
2018-02-24T00:07:35.337Z,15.77
2018-02-24T00:08:35.309Z,15.77
2018-02-24T00:09:35.316Z,15.77
2018-02-24T00:10:35.299Z,15.77
2018-02-24T00:11:35.325Z,15.76
2018-02-24T00:12:35.311Z,15.75
2018-02-24T00:13:35.308Z,15.75
2018-02-24T00:14:35.743Z,15.73
2018-02-24T00:15:35.316Z,15.74
2018-02-24T00:16:35.296Z,15.73
2018-02-24T00:17:35.324Z,15.72
2018-02-24T00:18:35.307Z,15.72
2018-02-24T00:19:35.290Z,15.71
2018-02-24T00:20:35.310Z,15.7
2018-02-24T00:21:35.311Z,15.7
2018-02-24T00:22:35.296Z,15.7
2018-02-24T00:23:35.306Z,15.69
2018-02-24T00:24:35.311Z,15.7
2018-02-24T00:25:35.289Z,15.68
2018-02-24T00:26:35.576Z,15.68
2018-02-24T00:27:35.330Z,15.68
2018-02-24T00:28:35.291Z,15.67
2018-02-24T00:29:35.286Z,15.67
2018-02-24T00:30:35.341Z,15.66
2018-02-24T00:31:35.314Z,15.65
2018-02-24T00:32:35.302Z,15.64
2018-02-24T00:33:35.288Z,15.65
2018-02-24T00:34:35.311Z,15.64
2018-02-24T00:35:35.296Z,15.64
2018-02-24T00:36:35.292Z,15.64
2018-02-24T00:37:35.293Z,15.63
2018-02-24T00:38:35.291Z,15.63
2018-02-24T00:39:35.304Z,15.63
2018-02-24T00:40:35.292Z,15.63
2018-02-24T00:41:35.312Z,15.62
2018-02-24T00:42:35.288Z,15.62
2018-02-24T00:43:35.301Z,15.6
2018-02-24T00:44:35.305Z,15.61
2018-02-24T00:45:35.285Z,15.59
2018-02-24T00:46:35.292Z,15.6
2018-02-24T00:47:35.281Z,15.58
2018-02-24T00:48:35.293Z,15.58
2018-02-24T00:49:35.298Z,15.59
2018-02-24T00:50:35.270Z,15.58
2018-02-24T00:51:35.289Z,15.58
2018-02-24T00:52:35.292Z,15.57
2018-02-24T00:53:35.287Z,15.56
2018-02-24T00:54:35.659Z,15.55
2018-02-24T00:55:35.279Z,15.55
2018-02-24T00:56:35.298Z,15.56
2018-02-24T00:57:35.386Z,15.55
2018-02-24T00:58:35.288Z,15.55
2018-02-24T00:59:35.309Z,15.55
2018-02-24T01:00:35.284Z,15.54
2018-02-24T01:01:35.308Z,15.54
2018-02-24T01:02:35.287Z,15.54
2018-02-24T01:03:35.302Z,15.54
2018-02-24T01:04:35.326Z,15.54
2018-02-24T01:05:35.780Z,15.54
2018-02-24T01:06:35.287Z,15.54
2018-02-24T01:07:35.273Z,15.53
2018-02-24T01:08:35.300Z,15.51
2018-02-24T01:09:35.299Z,15.51
2018-02-24T01:10:35.291Z,15.52
2018-02-24T01:11:35.295Z,15.51
2018-02-24T01:12:35.282Z,15.51
2018-02-24T01:13:35.384Z,15.51
2018-02-24T01:14:35.309Z,15.5
2018-02-24T01:15:35.283Z,15.49
2018-02-24T01:16:35.288Z,15.5
2018-02-24T01:17:35.338Z,15.5
2018-02-24T01:18:35.287Z,15.5
2018-02-24T01:19:35.363Z,15.48
2018-02-24T01:20:35.286Z,15.47
2018-02-24T01:21:35.273Z,15.47
2018-02-24T01:22:35.283Z,15.46
2018-02-24T01:23:35.287Z,15.47
2018-02-24T01:24:35.296Z,15.45
2018-02-24T01:25:35.272Z,15.46
2018-02-24T01:26:35.303Z,15.46
2018-02-24T01:27:35.276Z,15.46
2018-02-24T01:28:35.282Z,15.44
2018-02-24T01:29:35.279Z,15.45
2018-02-24T01:30:35.277Z,15.45
2018-02-24T01:31:35.326Z,15.44
2018-02-24T01:32:35.264Z,15.44
2018-02-24T01:33:35.270Z,15.44
2018-02-24T01:34:35.277Z,15.44
2018-02-24T01:35:35.279Z,15.43
2018-02-24T01:36:35.263Z,15.44
2018-02-24T01:37:35.333Z,15.44
2018-02-24T01:38:35.290Z,15.43
2018-02-24T01:39:35.262Z,15.42
2018-02-24T01:40:35.289Z,15.41
2018-02-24T01:41:35.269Z,15.41
2018-02-24T01:42:35.282Z,15.4
2018-02-24T01:43:35.280Z,15.39
2018-02-24T01:44:35.269Z,15.4
2018-02-24T01:45:35.291Z,15.39
2018-02-24T01:46:35.285Z,15.39
2018-02-24T01:47:35.270Z,15.38
2018-02-24T01:48:35.259Z,15.39
2018-02-24T01:49:35.270Z,15.38
2018-02-24T01:50:35.258Z,15.38
2018-02-24T01:51:35.302Z,15.38
2018-02-24T01:52:35.266Z,15.38
2018-02-24T01:53:35.273Z,15.36
2018-02-24T01:54:35.395Z,15.37
2018-02-24T01:55:35.351Z,15.38
2018-02-24T01:56:35.539Z,15.38
2018-02-24T01:57:35.269Z,15.37
2018-02-24T01:58:35.257Z,15.36
2018-02-24T01:59:35.258Z,15.35
2018-02-24T02:00:35.269Z,15.35
2018-02-24T02:01:35.293Z,15.35
2018-02-24T02:02:35.268Z,15.34
2018-02-24T02:03:35.278Z,15.35
2018-02-24T02:04:35.325Z,15.35
2018-02-24T02:05:35.264Z,15.33
2018-02-24T02:06:35.273Z,15.33
2018-02-24T02:07:35.254Z,15.31
2018-02-24T02:08:35.264Z,15.31
2018-02-24T02:09:35.246Z,15.31
2018-02-24T02:10:35.280Z,15.31
2018-02-24T02:11:35.262Z,15.31
2018-02-24T02:12:35.279Z,15.3
2018-02-24T02:13:35.282Z,15.3
2018-02-24T02:14:35.257Z,15.29
2018-02-24T02:15:35.259Z,15.29
2018-02-24T02:16:35.249Z,15.28
2018-02-24T02:17:35.260Z,15.27
2018-02-24T02:18:35.272Z,15.28
2018-02-24T02:19:35.255Z,15.28
2018-02-24T02:20:35.254Z,15.26
2018-02-24T02:21:35.260Z,15.26
2018-02-24T02:22:35.544Z,15.26
2018-02-24T02:23:35.271Z,15.27
2018-02-24T02:24:35.304Z,15.25
2018-02-24T02:25:35.251Z,15.25
2018-02-24T02:26:35.274Z,15.25
2018-02-24T02:27:35.271Z,15.26
2018-02-24T02:28:35.267Z,15.26
2018-02-24T02:29:35.270Z,15.25
2018-02-24T02:30:35.289Z,15.25
2018-02-24T02:31:35.268Z,15.24
2018-02-24T02:32:35.310Z,15.25
2018-02-24T02:33:35.271Z,15.24
2018-02-24T02:34:35.280Z,15.24
2018-02-24T02:35:35.255Z,15.24
2018-02-24T02:36:35.258Z,15.23
2018-02-24T02:37:35.352Z,15.24
2018-02-24T02:38:35.269Z,15.24
2018-02-24T02:39:35.259Z,15.22
2018-02-24T02:40:35.246Z,15.22
2018-02-24T02:41:35.266Z,15.22
2018-02-24T02:42:35.258Z,15.21
2018-02-24T02:43:35.286Z,15.22
2018-02-24T02:44:35.279Z,15.21
2018-02-24T02:45:35.253Z,15.2
2018-02-24T02:46:35.249Z,15.2
2018-02-24T02:47:35.276Z,15.21
2018-02-24T02:48:35.546Z,15.19
2018-02-24T02:49:35.257Z,15.2
2018-02-24T02:50:35.260Z,15.18
2018-02-24T02:51:35.263Z,15.17
2018-02-24T02:52:35.273Z,15.17
2018-02-24T02:53:35.319Z,15.16
2018-02-24T02:54:35.247Z,15.16
2018-02-24T02:55:35.262Z,15.17
2018-02-24T02:56:35.256Z,15.17
2018-02-24T02:57:35.258Z,15.16
2018-02-24T02:58:35.290Z,15.16
2018-02-24T02:59:35.255Z,15.16
2018-02-24T03:00:35.263Z,15.17
2018-02-24T03:01:35.246Z,15.17
2018-02-24T03:02:35.224Z,15.16
2018-02-24T03:03:35.356Z,15.16
2018-02-24T03:04:35.252Z,15.15
2018-02-24T03:05:35.245Z,15.14
2018-02-24T03:06:35.265Z,15.14
2018-02-24T03:07:35.249Z,15.14
2018-02-24T03:08:35.276Z,15.14
2018-02-24T03:09:35.229Z,15.14
2018-02-24T03:10:35.241Z,15.14
2018-02-24T03:11:35.256Z,15.14
2018-02-24T03:12:35.250Z,15.12
2018-02-24T03:13:35.277Z,15.13
2018-02-24T03:14:35.248Z,15.14
2018-02-24T03:15:35.277Z,15.14
2018-02-24T03:16:35.248Z,15.12
2018-02-24T03:17:35.267Z,15.11
2018-02-24T03:18:35.234Z,15.11
2018-02-24T03:19:35.451Z,15.09
2018-02-24T03:20:35.237Z,15.11
2018-02-24T03:21:35.244Z,15.08
2018-02-24T03:22:35.227Z,15.1
2018-02-24T03:23:35.228Z,15.1
2018-02-24T03:24:35.240Z,15.11
2018-02-24T03:25:35.231Z,15.09
2018-02-24T03:26:35.233Z,15.09
2018-02-24T03:27:35.233Z,15.1
2018-02-24T03:28:35.224Z,15.08
2018-02-24T03:29:35.265Z,15.07
2018-02-24T03:30:35.265Z,15.07
2018-02-24T03:31:35.648Z,15.07
2018-02-24T03:32:35.249Z,15.06
2018-02-24T03:33:35.234Z,15.05
2018-02-24T03:34:35.256Z,15.06
2018-02-24T03:35:35.250Z,15.06
2018-02-24T03:36:35.229Z,15.07
2018-02-24T03:37:35.210Z,15.06
2018-02-24T03:38:35.221Z,15.05
2018-02-24T03:39:35.263Z,15.05
2018-02-24T03:40:35.255Z,15.05
2018-02-24T03:41:35.228Z,15.04
2018-02-24T03:42:35.243Z,15.03
2018-02-24T03:43:35.226Z,15.04
2018-02-24T03:44:35.269Z,15.04
2018-02-24T03:45:35.231Z,15.04
2018-02-24T03:46:35.503Z,15.04
2018-02-24T03:47:35.234Z,15.04
2018-02-24T03:48:35.230Z,15.04
2018-02-24T03:49:35.224Z,15.01
2018-02-24T03:50:35.230Z,15.02
2018-02-24T03:51:35.252Z,15.03
2018-02-24T03:52:35.211Z,15.03
2018-02-24T03:53:35.223Z,15.03
2018-02-24T03:54:35.225Z,15.02
2018-02-24T03:55:35.308Z,15.02
2018-02-24T03:56:35.344Z,15.01
2018-02-24T03:57:35.233Z,15
2018-02-24T03:58:35.227Z,15.01
2018-02-24T03:59:35.234Z,15.02
2018-02-24T04:00:35.469Z,15.02
2018-02-24T04:01:35.216Z,15.01
2018-02-24T04:02:35.219Z,15
2018-02-24T04:03:35.237Z,15.01
2018-02-24T04:04:35.230Z,15
2018-02-24T04:05:35.253Z,15
2018-02-24T04:06:35.318Z,14.99
2018-02-24T04:07:35.218Z,14.98
2018-02-24T04:08:35.224Z,14.99
2018-02-24T04:09:35.201Z,14.99
2018-02-24T04:10:35.261Z,14.98
2018-02-24T04:11:35.223Z,14.99
2018-02-24T04:12:35.207Z,14.99
2018-02-24T04:13:35.218Z,14.98
2018-02-24T04:14:35.312Z,14.97
2018-02-24T04:15:35.253Z,14.99
2018-02-24T04:16:35.492Z,14.97
2018-02-24T04:17:35.224Z,14.96
2018-02-24T04:18:35.193Z,14.96
2018-02-24T04:19:35.235Z,14.97
2018-02-24T04:20:35.246Z,14.96
2018-02-24T04:21:35.230Z,14.96
2018-02-24T04:22:35.313Z,14.96
2018-02-24T04:23:35.242Z,14.96
2018-02-24T04:24:35.210Z,14.94
2018-02-24T04:25:35.262Z,14.95
2018-02-24T04:26:35.194Z,14.93
2018-02-24T04:27:35.209Z,14.93
2018-02-24T04:28:35.243Z,14.93
2018-02-24T04:29:35.219Z,14.93
2018-02-24T04:30:35.250Z,14.94
2018-02-24T04:31:35.210Z,14.92
2018-02-24T04:32:35.214Z,14.92
2018-02-24T04:33:35.214Z,14.92
2018-02-24T04:34:35.224Z,14.92
2018-02-24T04:35:35.238Z,14.92
2018-02-24T04:36:35.250Z,14.93
2018-02-24T04:37:35.254Z,14.92
2018-02-24T04:38:35.212Z,14.91
2018-02-24T04:39:35.206Z,14.9
2018-02-24T04:40:35.277Z,14.9
2018-02-24T04:41:35.203Z,14.91
2018-02-24T04:42:35.221Z,14.9
2018-02-24T04:43:35.230Z,14.89
2018-02-24T04:44:35.244Z,14.9
2018-02-24T04:45:35.188Z,14.89
2018-02-24T04:46:35.213Z,14.89
2018-02-24T04:47:35.199Z,14.88
2018-02-24T04:48:35.216Z,14.88
2018-02-24T04:49:35.201Z,14.89
2018-02-24T04:50:35.219Z,14.9
2018-02-24T04:51:35.208Z,14.91
2018-02-24T04:52:35.198Z,14.92
2018-02-24T04:53:35.246Z,14.93
2018-02-24T04:54:35.234Z,14.93
2018-02-24T04:55:35.220Z,14.94
2018-02-24T04:56:35.198Z,14.95
2018-02-24T04:57:35.235Z,14.97
2018-02-24T04:58:35.242Z,14.96
2018-02-24T04:59:35.205Z,14.96
2018-02-24T05:00:35.191Z,14.96
2018-02-24T05:01:35.217Z,14.96
2018-02-24T05:02:35.227Z,14.96
2018-02-24T05:03:35.224Z,14.96
2018-02-24T05:04:35.180Z,14.97
2018-02-24T05:05:35.205Z,14.98
2018-02-24T05:06:35.204Z,14.98
2018-02-24T05:07:35.205Z,14.99
2018-02-24T05:08:35.204Z,14.99
2018-02-24T05:09:35.205Z,14.99
2018-02-24T05:10:35.242Z,14.99
2018-02-24T05:11:35.197Z,15
2018-02-24T05:12:35.191Z,15.01
2018-02-24T05:13:35.210Z,15.02
2018-02-24T05:14:35.211Z,15.03
2018-02-24T05:15:35.209Z,15.04
2018-02-24T05:16:35.197Z,15.05
2018-02-24T05:17:35.199Z,15.05
2018-02-24T05:18:35.192Z,15.07
2018-02-24T05:19:35.192Z,15.08
2018-02-24T05:20:35.240Z,15.1
2018-02-24T05:21:35.204Z,15.11
2018-02-24T05:22:35.186Z,15.12
2018-02-24T05:23:35.203Z,15.13
2018-02-24T05:24:35.190Z,15.15
2018-02-24T05:25:35.204Z,15.16
2018-02-24T05:26:35.186Z,15.18
2018-02-24T05:27:35.518Z,15.18
2018-02-24T05:28:35.211Z,15.19
2018-02-24T05:29:35.161Z,15.21
2018-02-24T05:30:35.192Z,15.23
2018-02-24T05:31:35.190Z,15.25
2018-02-24T05:32:35.228Z,15.27
2018-02-24T05:33:35.181Z,15.28
2018-02-24T05:34:35.175Z,15.3
2018-02-24T05:35:35.174Z,15.32
2018-02-24T05:36:35.198Z,15.34
2018-02-24T05:37:35.181Z,15.36
2018-02-24T05:38:35.190Z,15.38
2018-02-24T05:39:35.178Z,15.39
2018-02-24T05:40:35.182Z,15.42
2018-02-24T05:41:35.188Z,15.44
2018-02-24T05:42:35.193Z,15.45
2018-02-24T05:43:35.453Z,15.47
2018-02-24T05:44:35.202Z,15.5
2018-02-24T05:45:35.201Z,15.52
2018-02-24T05:46:35.184Z,15.54
2018-02-24T05:47:35.179Z,15.56
2018-02-24T05:48:35.210Z,15.57
2018-02-24T05:49:35.201Z,15.59
2018-02-24T05:50:35.184Z,15.62
2018-02-24T05:51:35.246Z,15.64
2018-02-24T05:52:35.178Z,15.65
2018-02-24T05:53:35.159Z,15.67
2018-02-24T05:54:35.200Z,15.69
2018-02-24T05:55:35.194Z,15.7
2018-02-24T05:56:35.268Z,15.72
2018-02-24T05:57:35.585Z,15.75
2018-02-24T05:58:35.212Z,15.77
2018-02-24T05:59:35.211Z,15.77
2018-02-24T06:00:35.188Z,15.79
2018-02-24T06:01:35.189Z,15.81
2018-02-24T06:02:35.165Z,15.83
2018-02-24T06:03:35.192Z,15.83
2018-02-24T06:04:35.447Z,15.85
2018-02-24T06:05:35.180Z,15.87
2018-02-24T06:06:35.178Z,15.88
2018-02-24T06:07:35.521Z,15.89
2018-02-24T06:08:35.172Z,15.91
2018-02-24T06:09:35.211Z,15.92
2018-02-24T06:10:35.198Z,15.94
2018-02-24T06:11:35.166Z,15.96
2018-02-24T06:12:35.178Z,15.96
2018-02-24T06:13:35.179Z,15.98
2018-02-24T06:14:35.194Z,16
2018-02-24T06:15:35.166Z,16.01
2018-02-24T06:16:35.162Z,16.02
2018-02-24T06:17:35.160Z,16.02
2018-02-24T06:18:35.186Z,16.04
2018-02-24T06:19:35.192Z,16.06
2018-02-24T06:20:35.176Z,16.08
2018-02-24T06:21:35.173Z,16.08
2018-02-24T06:22:35.177Z,16.09
2018-02-24T06:23:35.159Z,16.1
2018-02-24T06:24:35.194Z,16.12
2018-02-24T06:25:35.190Z,16.13
2018-02-24T06:26:35.183Z,16.14
2018-02-24T06:27:35.144Z,16.15
2018-02-24T06:28:35.158Z,16.16
2018-02-24T06:29:35.185Z,16.17
2018-02-24T06:30:35.159Z,16.18
2018-02-24T06:31:35.173Z,16.2
2018-02-24T06:32:35.189Z,16.21
2018-02-24T06:33:35.182Z,16.22
2018-02-24T06:34:35.438Z,16.22
2018-02-24T06:35:35.173Z,16.23
2018-02-24T06:36:35.156Z,16.24
2018-02-24T06:37:35.169Z,16.25
2018-02-24T06:38:35.153Z,16.26
2018-02-24T06:39:35.499Z,16.27
2018-02-24T06:40:35.210Z,16.28
2018-02-24T06:41:35.165Z,16.28
2018-02-24T06:42:35.174Z,16.32
2018-02-24T06:43:35.160Z,16.34
2018-02-24T06:44:35.198Z,16.35
2018-02-24T06:45:35.204Z,16.36
2018-02-24T06:46:35.147Z,16.38
2018-02-24T06:47:35.158Z,16.39
2018-02-24T06:48:35.162Z,16.41
2018-02-24T06:49:35.197Z,16.41
2018-02-24T06:50:35.152Z,16.43
2018-02-24T06:51:35.154Z,16.45
2018-02-24T06:52:35.021Z,16.47
2018-02-24T06:53:35.185Z,16.47
2018-02-24T06:54:35.185Z,16.49
2018-02-24T06:55:35.156Z,16.5
2018-02-24T06:56:35.153Z,16.52
2018-02-24T06:57:35.167Z,16.53
2018-02-24T06:58:35.152Z,16.55
2018-02-24T06:59:35.454Z,16.56
2018-02-24T07:00:35.151Z,16.58
2018-02-24T07:01:35.173Z,16.59
2018-02-24T07:02:35.161Z,16.6
2018-02-24T07:03:35.169Z,16.61
2018-02-24T07:04:35.188Z,16.62
2018-02-24T07:05:35.166Z,16.63
2018-02-24T07:06:35.150Z,16.63
2018-02-24T07:07:35.150Z,16.63
2018-02-24T07:08:35.143Z,16.63
2018-02-24T07:09:35.178Z,16.64
2018-02-24T07:10:35.166Z,16.64
2018-02-24T07:11:35.138Z,16.65
2018-02-24T07:12:35.142Z,16.65
2018-02-24T07:13:35.150Z,16.65
2018-02-24T07:14:35.233Z,16.66
2018-02-24T07:15:35.160Z,16.66
2018-02-24T07:16:35.149Z,16.66
2018-02-24T07:17:35.153Z,16.66
2018-02-24T07:18:35.139Z,16.66
2018-02-24T07:19:35.415Z,16.67
2018-02-24T07:20:35.183Z,16.68
2018-02-24T07:21:35.155Z,16.68
2018-02-24T07:22:35.152Z,16.69
2018-02-24T07:23:35.244Z,16.69
2018-02-24T07:24:35.170Z,16.7
2018-02-24T07:25:35.167Z,16.7
2018-02-24T07:26:35.148Z,16.71
2018-02-24T07:27:35.145Z,16.72
2018-02-24T07:28:35.150Z,16.72
2018-02-24T07:29:35.175Z,16.73
2018-02-24T07:30:35.142Z,16.73
2018-02-24T07:31:35.256Z,16.73
2018-02-24T07:32:35.143Z,16.74
2018-02-24T07:33:35.158Z,16.74
2018-02-24T07:34:35.181Z,16.75
2018-02-24T07:35:35.156Z,16.76
2018-02-24T07:36:35.152Z,16.76
2018-02-24T07:37:35.150Z,16.77
2018-02-24T07:38:35.413Z,16.78
2018-02-24T07:39:35.141Z,16.78
2018-02-24T07:40:35.141Z,16.78
2018-02-24T07:41:35.154Z,16.79
2018-02-24T07:42:35.176Z,16.79
2018-02-24T07:43:35.177Z,16.8
2018-02-24T07:44:35.151Z,16.8
2018-02-24T07:45:35.132Z,16.81
2018-02-24T07:46:35.162Z,16.81
2018-02-24T07:47:35.140Z,16.82
2018-02-24T07:48:35.158Z,16.82
2018-02-24T07:49:35.219Z,16.84
2018-02-24T07:50:35.410Z,16.84
2018-02-24T07:51:35.135Z,16.85
2018-02-24T07:52:35.138Z,16.85
2018-02-24T07:53:35.170Z,16.85
2018-02-24T07:54:35.176Z,16.85
2018-02-24T07:55:35.166Z,16.86
2018-02-24T07:56:35.156Z,16.86
2018-02-24T07:57:35.250Z,16.87
2018-02-24T07:58:35.144Z,16.87
2018-02-24T07:59:35.139Z,16.88
2018-02-24T08:00:35.135Z,16.88
2018-02-24T08:01:35.152Z,16.89
2018-02-24T08:02:35.130Z,16.89
2018-02-24T08:03:35.140Z,16.9
2018-02-24T08:04:35.134Z,16.91
2018-02-24T08:05:35.154Z,16.91
2018-02-24T08:06:35.174Z,16.92
2018-02-24T08:07:35.146Z,16.92
2018-02-24T08:08:35.140Z,16.92
2018-02-24T08:09:35.124Z,16.93
2018-02-24T08:10:35.420Z,16.93
2018-02-24T08:11:35.151Z,16.94
2018-02-24T08:12:35.130Z,16.95
2018-02-24T08:13:35.138Z,16.98
2018-02-24T08:14:35.137Z,17.04
2018-02-24T08:15:35.146Z,17.04
2018-02-24T08:16:35.128Z,17.04
2018-02-24T08:17:35.440Z,17.06
2018-02-24T08:18:35.132Z,17.07
2018-02-24T08:19:35.125Z,17.09
2018-02-24T08:20:35.114Z,17.1
2018-02-24T08:21:35.140Z,17.11
2018-02-24T08:22:35.122Z,17.11
2018-02-24T08:23:35.118Z,17.13
2018-02-24T08:24:35.119Z,17.14
2018-02-24T08:25:35.405Z,17.15
2018-02-24T08:26:35.146Z,17.17
2018-02-24T08:27:35.138Z,17.17
2018-02-24T08:28:35.118Z,17.18
2018-02-24T08:29:35.118Z,17.19
2018-02-24T08:30:35.148Z,17.19
2018-02-24T08:31:35.164Z,17.2
2018-02-24T08:32:35.152Z,17.21
2018-02-24T08:33:35.143Z,17.21
2018-02-24T08:34:35.129Z,17.22
2018-02-24T08:35:35.119Z,17.23
2018-02-24T08:36:35.136Z,17.23
2018-02-24T08:37:35.272Z,17.24
2018-02-24T08:38:35.259Z,17.24
2018-02-24T08:39:35.241Z,17.26
2018-02-24T08:40:35.187Z,17.26
2018-02-24T08:41:35.147Z,17.27
2018-02-24T08:42:35.127Z,17.29
2018-02-24T08:43:35.139Z,17.29
2018-02-24T08:44:35.119Z,17.29
2018-02-24T08:45:35.136Z,17.31
2018-02-24T08:46:35.139Z,17.33
2018-02-24T08:47:35.134Z,17.33
2018-02-24T08:48:35.107Z,17.34
2018-02-24T08:49:35.116Z,17.34
2018-02-24T08:50:35.112Z,17.36
2018-02-24T08:51:35.148Z,17.36
2018-02-24T08:52:35.117Z,17.36
2018-02-24T08:53:35.116Z,17.36
2018-02-24T08:54:35.126Z,17.36
2018-02-24T08:55:35.108Z,17.37
2018-02-24T08:56:35.155Z,17.38
2018-02-24T08:57:35.128Z,17.38
2018-02-24T08:58:35.121Z,17.39
2018-02-24T08:59:35.135Z,17.4
2018-02-24T09:00:35.118Z,17.41
2018-02-24T09:01:35.115Z,17.42
2018-02-24T09:02:35.147Z,17.43
2018-02-24T09:03:35.166Z,17.44
2018-02-24T09:04:35.139Z,17.44
2018-02-24T09:05:35.099Z,17.46
2018-02-24T09:06:35.118Z,17.48
2018-02-24T09:07:35.380Z,17.47
2018-02-24T09:08:35.102Z,17.45
2018-02-24T09:09:35.114Z,17.45
2018-02-24T09:10:35.120Z,17.45
2018-02-24T09:11:35.130Z,17.44
2018-02-24T09:12:35.114Z,17.43
2018-02-24T09:13:35.330Z,17.43
2018-02-24T09:14:35.145Z,17.43
2018-02-24T09:15:35.122Z,17.42
2018-02-24T09:16:35.110Z,17.42
2018-02-24T09:17:35.137Z,17.42
2018-02-24T09:18:35.120Z,17.42
2018-02-24T09:19:35.112Z,17.42
2018-02-24T09:20:35.114Z,17.42
2018-02-24T09:21:35.097Z,17.42
2018-02-24T09:22:35.147Z,17.41
2018-02-24T09:23:35.133Z,17.41
2018-02-24T09:24:35.118Z,17.42
2018-02-24T09:25:35.110Z,17.42
2018-02-24T09:26:35.093Z,17.42
2018-02-24T09:27:35.141Z,17.41
2018-02-24T09:28:35.122Z,17.42
2018-02-24T09:29:35.110Z,17.42
2018-02-24T09:30:35.113Z,17.41
2018-02-24T09:31:35.105Z,17.41
2018-02-24T09:32:35.145Z,17.41
2018-02-24T09:33:35.116Z,17.42
2018-02-24T09:34:35.103Z,17.42
2018-02-24T09:35:35.112Z,17.41
2018-02-24T09:36:35.131Z,17.42
2018-02-24T09:37:35.358Z,17.42
2018-02-24T09:38:35.130Z,17.42
2018-02-24T09:39:35.094Z,17.41
2018-02-24T09:40:35.101Z,17.42
2018-02-24T09:41:35.090Z,17.41
2018-02-24T09:42:35.138Z,17.41
2018-02-24T09:43:35.152Z,17.42
2018-02-24T09:44:35.100Z,17.42
2018-02-24T09:45:35.097Z,17.42
2018-02-24T09:46:35.088Z,17.42
2018-02-24T09:47:35.133Z,17.42
2018-02-24T09:48:35.113Z,17.42
2018-02-24T09:49:35.103Z,17.42
2018-02-24T09:50:35.389Z,17.42
2018-02-24T09:51:35.114Z,17.42
2018-02-24T09:52:35.110Z,17.43
2018-02-24T09:53:35.061Z,17.42
2018-02-24T09:54:35.098Z,17.43
2018-02-24T09:55:35.132Z,17.43
2018-02-24T09:56:35.109Z,17.44
2018-02-24T09:57:35.096Z,17.44
2018-02-24T09:58:35.207Z,17.44
2018-02-24T09:59:35.168Z,17.44
2018-02-24T10:00:35.136Z,17.44
2018-02-24T10:01:35.108Z,17.45
2018-02-24T10:02:35.101Z,17.46
2018-02-24T10:03:35.106Z,17.46
2018-02-24T10:04:35.124Z,17.46
2018-02-24T10:05:35.116Z,17.46
2018-02-24T10:06:35.092Z,17.46
2018-02-24T10:07:35.092Z,17.47
2018-02-24T10:08:35.119Z,17.47
2018-02-24T10:09:35.099Z,17.47
2018-02-24T10:10:35.113Z,17.47
2018-02-24T10:11:35.088Z,17.48
2018-02-24T10:12:35.087Z,17.48
2018-02-24T10:13:35.081Z,17.48
2018-02-24T10:14:35.093Z,17.48
2018-02-24T10:15:35.138Z,17.48
2018-02-24T10:16:35.103Z,17.48
2018-02-24T10:17:35.088Z,17.48
2018-02-24T10:18:35.086Z,17.49
2018-02-24T10:19:35.101Z,17.49
2018-02-24T10:20:35.139Z,17.49
2018-02-24T10:21:35.104Z,17.5
2018-02-24T10:22:35.083Z,17.5
2018-02-24T10:23:35.113Z,17.5
2018-02-24T10:24:35.104Z,17.51
2018-02-24T10:25:35.131Z,17.51
2018-02-24T10:26:35.093Z,17.52
2018-02-24T10:27:35.088Z,17.51
2018-02-24T10:28:35.100Z,17.52
2018-02-24T10:29:35.088Z,17.52
2018-02-24T10:30:35.130Z,17.53
2018-02-24T10:31:35.105Z,17.52
2018-02-24T10:32:35.092Z,17.53
2018-02-24T10:33:35.079Z,17.53
2018-02-24T10:34:35.129Z,17.53
2018-02-24T10:35:35.114Z,17.54
2018-02-24T10:36:35.074Z,17.54
2018-02-24T10:37:35.137Z,17.54
2018-02-24T10:38:35.094Z,17.54
2018-02-24T10:39:35.099Z,17.54
2018-02-24T10:40:35.179Z,17.54
2018-02-24T10:41:35.089Z,17.55
2018-02-24T10:42:35.128Z,17.55
2018-02-24T10:43:35.086Z,17.55
2018-02-24T10:44:35.077Z,17.55
2018-02-24T10:45:35.216Z,17.56
2018-02-24T10:46:35.076Z,17.55
2018-02-24T10:47:35.086Z,17.57
2018-02-24T10:48:35.452Z,17.57
2018-02-24T10:49:35.096Z,17.56
2018-02-24T10:50:35.088Z,17.58
2018-02-24T10:51:35.081Z,17.59
2018-02-24T10:52:35.111Z,17.56
2018-02-24T10:53:35.128Z,17.57
2018-02-24T10:54:35.082Z,17.58
2018-02-24T10:55:35.083Z,17.58
2018-02-24T10:56:35.175Z,17.58
2018-02-24T10:57:35.109Z,17.59
2018-02-24T10:58:35.089Z,17.6
2018-02-24T10:59:35.083Z,17.6
2018-02-24T11:00:35.087Z,17.61
2018-02-24T11:01:35.081Z,17.61
2018-02-24T11:02:35.075Z,17.64
2018-02-24T11:03:35.106Z,17.64
2018-02-24T11:04:35.067Z,17.65
2018-02-24T11:05:35.192Z,17.65
2018-02-24T11:06:35.072Z,17.66
2018-02-24T11:07:35.079Z,17.66
2018-02-24T11:08:35.165Z,17.66
2018-02-24T11:09:35.096Z,17.67
2018-02-24T11:10:35.081Z,17.7
2018-02-24T11:11:35.077Z,17.7
2018-02-24T11:12:35.183Z,17.65
2018-02-24T11:13:35.077Z,17.6
2018-02-24T11:14:35.403Z,17.58
2018-02-24T11:15:35.068Z,17.59
2018-02-24T11:16:35.076Z,17.61
2018-02-24T11:17:35.068Z,17.62
2018-02-24T11:18:35.075Z,17.64
2018-02-24T11:19:35.126Z,17.65
2018-02-24T11:20:35.080Z,17.67
2018-02-24T11:21:35.098Z,17.67
2018-02-24T11:22:35.059Z,17.7
2018-02-24T11:23:35.068Z,17.73
2018-02-24T11:24:35.078Z,17.73
2018-02-24T11:25:35.098Z,17.74
2018-02-24T11:26:35.077Z,17.76
2018-02-24T11:27:35.088Z,17.78
2018-02-24T11:28:35.072Z,17.79
2018-02-24T11:29:35.071Z,17.82
2018-02-24T11:30:35.348Z,17.82
2018-02-24T11:31:35.058Z,17.83
2018-02-24T11:32:35.064Z,17.85
2018-02-24T11:33:35.066Z,17.85
2018-02-24T11:34:35.083Z,17.86
2018-02-24T11:35:35.106Z,17.86
2018-02-24T11:36:35.060Z,17.88
2018-02-24T11:37:35.067Z,17.89
2018-02-24T11:38:35.060Z,17.9
2018-02-24T11:39:35.061Z,17.91
2018-02-24T11:40:35.128Z,17.91
2018-02-24T11:41:35.076Z,17.92
2018-02-24T11:42:35.327Z,17.92
2018-02-24T11:43:35.477Z,17.93
2018-02-24T11:44:35.057Z,17.94
2018-02-24T11:45:35.058Z,17.93
2018-02-24T11:46:35.419Z,17.94
2018-02-24T11:47:35.081Z,17.95
2018-02-24T11:48:35.057Z,17.94
2018-02-24T11:49:35.055Z,17.94
2018-02-24T11:50:35.091Z,17.94
2018-02-24T11:51:35.057Z,17.96
2018-02-24T11:52:35.091Z,17.96
2018-02-24T11:53:35.060Z,17.97
2018-02-24T11:54:24.597Z,18.21
2018-02-24T11:55:33.304Z,18.33
2018-02-24T11:56:32.827Z,18.39
2018-02-24T11:57:32.835Z,18.44
2018-02-24T11:58:32.884Z,18.48
2018-02-24T11:59:32.844Z,18.53
2018-02-24T12:00:18.762Z,18.54
2018-02-24T12:01:17.997Z,18.57
2018-02-24T12:02:18.011Z,18.6
2018-02-24T12:03:18.006Z,18.6
2018-02-24T12:04:17.999Z,18.62
2018-02-24T12:05:18.009Z,18.64
2018-02-24T12:06:17.994Z,18.65
2018-02-24T12:07:17.997Z,18.66
2018-02-24T12:08:17.989Z,18.67
2018-02-24T12:09:17.992Z,18.68
2018-02-24T12:10:18.002Z,18.69
2018-02-24T12:11:18.045Z,18.69
2018-02-24T12:11:58.370Z,18.7
2018-02-24T12:12:57.633Z,18.71
2018-02-24T12:13:57.633Z,18.72
2018-02-24T12:14:57.680Z,18.72
2018-02-24T12:16:14.078Z,18.74
2018-02-24T12:16:56.218Z,18.74
2018-02-24T12:17:55.858Z,18.76
2018-02-24T12:18:55.832Z,18.76
2018-02-24T12:19:55.837Z,18.78
2018-02-24T12:20:55.833Z,18.78
2018-02-24T12:21:55.873Z,18.79
2018-02-24T12:22:55.848Z,18.78
2018-02-24T12:23:55.833Z,18.75
2018-02-24T12:24:55.832Z,18.73
2018-02-24T12:25:55.856Z,18.72
2018-02-24T12:26:55.852Z,18.7
2018-02-24T12:27:55.904Z,18.69
2018-02-24T12:28:55.842Z,18.68
2018-02-24T12:29:55.867Z,18.68
2018-02-24T12:30:55.846Z,18.67
2018-02-24T12:31:55.860Z,18.66
2018-02-24T12:32:55.877Z,18.66
2018-02-24T12:33:55.856Z,18.66
2018-02-24T12:34:55.831Z,18.66
2018-02-24T12:35:55.834Z,18.65
2018-02-24T12:36:55.821Z,18.64
2018-02-24T12:37:55.817Z,18.64
2018-02-24T12:38:55.836Z,18.64
2018-02-24T12:39:55.824Z,18.63
2018-02-24T12:40:55.851Z,18.63
2018-02-24T12:41:55.868Z,18.62
2018-02-24T12:42:55.914Z,18.61
2018-02-24T12:43:55.831Z,18.61
2018-02-24T12:44:55.818Z,18.61
2018-02-24T12:45:55.832Z,18.61
2018-02-24T12:46:55.829Z,18.61
2018-02-24T12:47:55.831Z,18.6
2018-02-24T12:48:55.844Z,18.6
2018-02-24T12:49:56.842Z,18.6
2018-02-24T12:50:56.146Z,18.6
2018-02-24T12:51:55.812Z,18.6
2018-02-24T12:52:55.823Z,18.6
2018-02-24T12:53:55.833Z,18.59
2018-02-24T12:54:55.812Z,18.59